Time;durP1;ratioP1;P1;durP2;ratioP2;P2;SDS_P1;SDS_P2;PMS_P1;PMS_P2;Temp;Humidity;BMP_temperature;BMP_pressure;BME280_temperature;BME280_humidity;BME280_pressure;Samples;Min_cycle;Max_cycle;Signal;HPM_P1;HPM_P2
2021/12/28 00:00:28;;;;;;;34.00;8.95;;;;;;;7.35;100.00;99348.75;5092007;28;20089;-79
2021/12/28 00:02:56;;;;;;;34.95;9.30;;;;;;;7.32;100.00;99354.28;5090244;28;20036;-79
2021/12/28 00:05:22;;;;;;;32.55;9.88;;;;;;;7.31;100.00;99341.19;5093713;28;20032;-79
2021/12/28 00:07:48;;;;;;;32.42;9.48;;;;;;;7.07;100.00;99301.53;5092990;28;20351;-79
2021/12/28 00:10:16;;;;;;;37.33;9.27;;;;;;;7.19;100.00;99329.72;5075412;28;20046;-79
2021/12/28 00:12:42;;;;;;;44.47;10.85;;;;;;;7.21;100.00;99333.09;5091476;28;20028;-79
2021/12/28 00:18:03;;;;;;;42.17;10.00;;;;;;;7.24;100.00;99346.94;5065663;28;20119;-79
2021/12/28 00:20:34;;;;;;;36.05;10.02;;;;;;;7.22;100.00;99340.91;5079404;28;20538;-78
2021/12/28 00:23:01;;;;;;;34.92;9.43;;;;;;;7.20;100.00;99339.31;5080664;28;20040;-79
2021/12/28 00:25:27;;;;;;;33.22;9.38;;;;;;;7.21;100.00;99339.22;5072898;28;20032;-80
2021/12/28 00:27:56;;;;;;;33.80;10.05;;;;;;;7.11;100.00;99324.13;5082082;28;20032;-80
2021/12/28 00:30:22;;;;;;;40.15;10.00;;;;;;;7.03;100.00;99307.03;5093282;28;20118;-79
2021/12/28 00:32:53;;;;;;;38.75;10.13;;;;;;;7.12;100.00;99324.03;5092963;28;20079;-79
2021/12/28 00:35:23;;;;;;;33.65;9.57;;;;;;;7.03;100.00;99295.63;5092662;28;20024;-79
2021/12/28 00:37:49;;;;;;;;;;;;;;;7.19;100.00;99322.63;5092208;28;20020;-79
2021/12/28 00:40:15;;;;;;;31.60;9.32;;;;;;;7.12;100.00;99318.75;5092571;28;19912;-79
2021/12/28 00:42:41;;;;;;;31.70;10.27;;;;;;;7.04;100.00;99321.94;5092730;28;20491;-78
2021/12/28 00:45:07;;;;;;;39.20;9.30;;;;;;;7.12;100.00;99324.03;5091047;28;20040;-79
2021/12/28 00:47:33;;;;;;;38.28;10.55;;;;;;;7.04;100.00;99306.09;5090849;28;20108;-79
2021/12/28 00:49:59;;;;;;;33.00;10.27;;;;;;;7.17;100.00;99319.22;5091382;28;20049;-80
2021/12/28 00:52:24;;;;;;;32.75;9.90;;;;;;;7.17;100.00;99305.16;5091159;28;20494;-80
2021/12/28 00:54:50;;;;;;;35.40;9.45;;;;;;;7.15;100.00;99300.00;5108139;28;20032;-79
2021/12/28 00:57:15;;;;;;;36.97;9.63;;;;;;;7.19;100.00;99305.91;5124355;27;20032;-79
2021/12/28 00:59:40;;;;;;;36.67;10.35;;;;;;;7.18;100.00;99306.88;5073562;28;20097;-79
2021/12/28 01:02:06;;;;;;;47.03;10.48;;;;;;;7.08;100.00;99290.00;5073508;28;20370;-79
2021/12/28 01:04:32;;;;;;;37.63;8.75;;;;;;;7.09;100.00;99297.81;5091267;28;20051;-79
2021/12/28 01:06:58;;;;;;;31.75;8.82;;;;;;;7.07;100.00;99291.78;5090545;28;20036;-79
2021/12/28 01:09:30;;;;;;;41.03;9.95;;;;;;;7.01;100.00;99285.16;5090879;28;20028;-79
2021/12/28 01:11:57;;;;;;;37.80;10.50;;;;;;;6.92;100.00;99263.84;5092074;28;20024;-79
2021/12/28 01:14:22;;;;;;;42.90;9.65;;;;;;;6.99;100.00;99273.00;5091694;28;20383;-80
2021/12/28 01:16:47;;;;;;;36.70;9.15;;;;;;;6.94;100.00;99264.56;5090514;28;20036;-78
2021/12/28 01:19:13;;;;;;;40.83;9.85;;;;;;;6.97;100.00;99272.28;5092124;28;20515;-80
2021/12/28 01:21:39;;;;;;;37.63;9.77;;;;;;;7.04;100.00;99284.94;5090609;28;20508;-79
2021/12/28 01:24:04;;;;;;;41.50;9.82;;;;;;;6.97;100.00;99282.84;5091849;28;20051;-79
2021/12/28 01:26:30;;;;;;;44.70;9.10;;;;;;;7.01;100.00;99279.88;5090341;28;20028;-79
2021/12/28 01:28:55;;;;;;;37.25;9.40;;;;;;;7.01;100.00;99276.41;5073345;28;20399;-79
2021/12/28 01:31:21;;;;;;;40.33;9.82;;;;;;;6.98;100.00;99269.53;5091661;28;20123;-79
2021/12/28 01:33:46;;;;;;;38.55;9.20;;;;;;;6.96;100.00;99275.88;5090248;28;20036;-80
2021/12/28 01:36:11;;;;;;;35.95;9.23;;;;;;;6.90;100.00;99263.97;5091502;28;20063;-79
2021/12/28 01:38:39;;;;;;;33.67;8.32;;;;;;;6.85;100.00;99265.25;5091363;28;20097;-79
2021/12/28 01:41:09;;;;;;;38.00;10.60;;;;;;;6.96;100.00;99276.72;5091912;28;20055;-80
2021/12/28 01:43:38;;;;;;;37.13;9.18;;;;;;;6.99;100.00;99276.50;5091350;28;20077;-79
2021/12/28 01:46:06;;;;;;;43.55;9.30;;;;;;;7.00;100.00;99277.31;5091878;28;20045;-79
2021/12/28 01:48:35;;;;;;;34.42;9.15;;;;;;;6.98;100.00;99273.97;5091266;28;20035;-79
2021/12/28 01:51:09;;;;;;;33.55;9.68;;;;;;;6.90;100.00;99265.75;5091509;28;20115;-79
2021/12/28 01:53:38;;;;;;;39.50;10.23;;;;;;;6.96;100.00;99266.16;5091896;28;20066;-78
2021/12/28 01:56:10;;;;;;;35.20;9.23;;;;;;;6.93;100.00;99266.38;5091664;28;20491;-80
2021/12/28 01:58:36;;;;;;;42.53;9.55;;;;;;;7.04;100.00;99278.81;5091257;28;20051;-79
2021/12/28 02:01:03;;;;;;;44.65;8.93;;;;;;;6.85;100.00;99247.59;5091495;28;20078;-81
2021/12/28 02:03:30;;;;;;;42.05;8.43;;;;;;;6.92;100.00;99258.56;5089598;28;20027;-81
2021/12/28 02:05:56;;;;;;;38.58;9.00;;;;;;;6.96;100.00;99263.50;5091481;28;20024;-79
2021/12/28 02:08:22;;;;;;;35.45;8.57;;;;;;;6.95;100.00;99259.19;5069385;28;20086;-79
2021/12/28 02:10:50;;;;;;;47.38;9.70;;;;;;;6.89;100.00;99246.41;5071358;28;20025;-79
2021/12/28 02:13:17;;;;;;;34.85;9.10;;;;;;;7.07;100.00;99275.09;5089020;28;20039;-79
2021/12/28 02:15:42;;;;;;;47.28;8.95;;;;;;;6.97;100.00;99253.78;5091219;28;20024;-79
2021/12/28 02:18:10;;;;;;;38.85;9.20;;;;;;;6.96;100.00;99257.38;5090701;28;20119;-79
2021/12/28 02:20:37;;;;;;;47.03;9.48;;;;;;;7.12;100.00;99275.56;5089976;28;20027;-81
2021/12/28 02:23:03;;;;;;;35.88;9.00;;;;;;;6.93;100.00;99247.88;5089863;28;20312;-80
2021/12/28 02:25:31;;;;;;;41.08;9.25;;;;;;;6.93;100.00;99237.31;5090758;28;20032;-79
2021/12/28 02:27:57;;;;;;;40.53;9.32;;;;;;;6.99;100.00;99242.13;5089950;28;20106;-80
2021/12/28 02:30:24;;;;;;;42.70;9.32;;;;;;;7.00;100.00;99241.19;5091251;28;20043;-81
2021/12/28 02:32:50;;;;;;;41.92;9.30;;;;;;;7.00;100.00;99238.56;5091067;28;20024;-79
2021/12/28 02:35:19;;;;;;;41.70;9.98;;;;;;;7.08;100.00;99255.63;5090446;28;20028;-79
2021/12/28 02:37:47;;;;;;;39.72;9.32;;;;;;;7.08;100.00;99252.97;5091359;28;20015;-79
2021/12/28 02:40:16;;;;;;;39.17;9.10;;;;;;;7.16;100.00;99259.38;5089558;28;20038;-80
2021/12/28 02:42:42;;;;;;;38.42;9.10;;;;;;;7.04;100.00;99245.28;5089671;28;20119;-79
2021/12/28 02:45:20;;;;;;;41.83;9.75;;;;;;;7.16;100.00;99259.38;5090381;28;20056;-79
2021/12/28 02:47:49;;;;;;;38.67;9.55;;;;;;;7.19;100.00;99256.50;5090067;28;20036;-79
2021/12/28 02:50:30;;;;;;;40.67;9.43;;;;;;;7.20;100.00;99252.06;5090798;28;20489;-79
2021/12/28 02:52:58;;;;;;;40.30;9.18;;;;;;;7.20;100.00;99250.25;5086163;28;20138;-79
2021/12/28 02:55:27;;;;;;;41.08;8.38;;;;;;;7.21;100.00;99244.03;5087452;28;20067;-78
2021/12/28 02:58:01;;;;;;;48.72;9.00;;;;;;;7.13;100.00;99229.69;5090796;28;20140;-78
2021/12/28 03:00:38;;;;;;;43.63;8.93;;;;;;;7.23;100.00;99233.31;5079766;28;20033;-79
2021/12/28 03:03:11;;;;;;;43.78;10.15;;;;;;;7.19;100.00;99223.94;5072198;28;20035;-79
2021/12/28 03:05:39;;;;;;;36.08;8.77;;;;;;;7.18;100.00;99219.63;5090431;28;20035;-79
2021/12/28 03:08:06;;;;;;;42.90;9.60;;;;;;;7.08;100.00;99202.75;5090908;28;20024;-80
2021/12/28 03:10:31;;;;;;;43.25;9.82;;;;;;;7.24;100.00;99230.56;5089454;28;20080;-79
2021/12/28 03:12:57;;;;;;;43.08;9.32;;;;;;;7.26;100.00;99225.16;5089018;28;20107;-79
2021/12/28 03:15:22;;;;;;;43.65;8.85;;;;;;;7.18;100.00;99219.63;5090521;28;20286;-79
2021/12/28 03:17:48;;;;;;;45.13;8.68;;;;;;;7.26;100.00;99228.66;5089237;28;20039;-79
2021/12/28 03:20:17;;;;;;;38.88;8.68;;;;;;;7.17;100.00;99207.34;5090840;28;20482;-80
2021/12/28 03:22:46;;;;;;;38.30;8.98;;;;;;;7.19;100.00;99218.66;5090332;28;20031;-79
2021/12/28 03:25:12;;;;;;;42.72;8.88;;;;;;;7.19;100.00;99216.84;5093368;28;20028;-79
2021/12/28 03:27:39;;;;;;;40.38;8.35;;;;;;;7.23;100.00;99218.31;5093812;28;20394;-79
2021/12/28 03:30:08;;;;;;;40.80;7.85;;;;;;;7.19;100.00;99210.72;5076502;28;20040;-79
2021/12/28 03:32:34;;;;;;;38.17;7.40;;;;;;;7.32;100.00;99216.75;5094191;28;20098;-79
2021/12/28 03:35:03;;;;;;;48.40;9.93;;;;;;;7.35;100.00;99218.34;5090347;28;20046;-79
2021/12/28 03:37:30;;;;;;;30.88;8.20;;;;;;;7.35;100.00;99211.22;5073783;28;20032;-79
2021/12/28 03:39:57;;;;;;;42.80;9.00;;;;;;;7.43;100.00;99210.66;5092534;28;20024;-79
2021/12/28 03:42:22;;;;;;;32.03;7.60;;;;;;;7.46;100.00;99208.63;5092475;28;20110;-80
2021/12/28 03:44:48;;;;;;;33.90;7.88;;;;;;;7.42;100.00;99196.59;5092185;28;20499;-79
2021/12/28 03:47:15;;;;;;;40.38;7.85;;;;;;;7.50;100.00;99206.59;5092388;28;20123;-80
2021/12/28 03:49:43;;;;;;;42.03;7.35;;;;;;;7.53;100.00;99197.56;5076061;28;20483;-79
2021/12/28 03:52:09;;;;;;;25.42;6.70;;;;;;;7.46;100.00;99183.97;5092425;28;20482;-79
2021/12/28 03:54:34;;;;;;;32.92;7.30;;;;;;;7.54;100.00;99194.81;5093623;28;20047;-78
2021/12/28 03:57:01;;;;;;;37.90;7.30;;;;;;;7.41;100.00;99167.59;5092399;28;20093;-79
2021/12/28 03:59:27;;;;;;;32.80;8.18;;;;;;;7.54;100.00;99193.97;5093674;28;20048;-79
2021/12/28 04:01:52;;;;;;;40.17;7.63;;;;;;;7.57;100.00;99184.00;5093366;28;20063;-79
2021/12/28 04:04:22;;;;;;;36.08;6.53;;;;;;;7.40;100.00;99155.34;5092065;28;20502;-79
2021/12/28 04:06:49;;;;;;;36.08;6.95;;;;;;;7.63;100.00;99186.16;5093428;28;20054;-79
2021/12/28 04:09:23;;;;;;;30.27;6.40;;;;;;;7.64;100.00;99187.84;5092251;28;20441;-79
2021/12/28 04:11:49;;;;;;;32.75;7.22;;;;;;;7.69;100.00;99187.50;5093404;28;20122;-78
2021/12/28 04:14:15;;;;;;;33.63;6.65;;;;;;;7.61;100.00;99160.78;5092815;28;20020;-78
2021/12/28 04:16:44;;;;;;;32.88;6.85;;;;;;;7.64;100.00;99171.97;5092308;28;20043;-79
2021/12/28 04:19:11;;;;;;;23.58;6.82;;;;;;;7.73;100.00;99184.50;5093273;28;20020;-81
2021/12/28 04:21:37;;;;;;;37.83;7.18;;;;;;;7.75;100.00;99173.78;5106979;27;20040;-79
2021/12/28 04:24:05;;;;;;;32.25;6.75;;;;;;;7.69;100.00;99159.22;5082457;28;20453;-80
2021/12/28 04:26:30;;;;;;;33.00;6.95;;;;;;;7.83;100.00;99183.78;5091863;28;20063;-79
2021/12/28 04:28:56;;;;;;;29.52;6.38;;;;;;;7.83;100.00;99175.84;5091936;28;20056;-80
2021/12/28 04:31:22;;;;;;;26.30;6.82;;;;;;;7.85;100.00;99180.06;5093049;28;20094;-80
2021/12/28 04:33:48;;;;;;;28.02;6.18;;;;;;;7.77;100.00;99160.44;5092874;28;20039;-79
2021/12/28 04:36:15;;;;;;;28.33;6.28;;;;;;;7.88;100.00;99182.47;5092744;28;20036;-81
2021/12/28 04:38:43;;;;;;;32.83;6.20;;;;;;;7.78;100.00;99164.75;5093194;28;20031;-79
2021/12/28 04:41:10;;;;;;;23.90;6.35;;;;;;;7.76;100.00;99154.28;5091217;28;20028;-79
2021/12/28 04:43:36;;;;;;;28.27;6.00;;;;;;;7.77;100.00;99145.41;5092769;28;20113;-79
2021/12/28 04:46:02;;;;;;;24.90;6.25;;;;;;;7.97;100.00;99179.06;5091002;28;20395;-79
2021/12/28 04:48:28;;;;;;;27.52;6.07;;;;;;;7.90;100.00;99180.50;5091568;28;20038;-78
2021/12/28 04:50:54;;;;;;;25.73;5.50;;;;;;;8.02;100.00;99191.94;5092600;28;20485;-79
2021/12/28 04:53:19;;;;;;;30.52;6.72;;;;;;;7.89;100.00;99173.53;5074442;28;20031;-78
2021/12/28 04:55:49;;;;;;;22.85;5.63;;;;;;;7.95;100.00;99174.88;5090801;28;20031;-79
2021/12/28 04:58:15;;;;;;;22.90;5.53;;;;;;;7.89;100.00;99173.53;5092352;28;20464;-79
2021/12/28 05:00:44;;;;;;;31.60;5.93;;;;;;;8.01;100.00;99195.56;5087639;28;20028;-81
2021/12/28 05:03:13;;;;;;;26.63;5.65;;;;;;;7.91;100.00;99173.41;5081331;28;20056;-78
2021/12/28 05:05:43;;;;;;;22.93;5.80;;;;;;;7.94;100.00;99168.72;5090850;28;20042;-78
2021/12/28 05:08:10;;;;;;;24.88;6.22;;;;;;;8.02;100.00;99180.50;5120263;27;20344;-78
2021/12/28 05:10:35;;;;;;;21.20;5.85;;;;;;;7.90;100.00;99156.69;5070650;28;20029;-79
2021/12/28 05:13:02;;;;;;;21.67;5.53;;;;;;;7.86;100.00;99152.63;5074906;28;20107;-79
2021/12/28 05:15:28;;;;;;;22.92;5.25;;;;;;;7.88;100.00;99163.94;5092028;28;20028;-79
2021/12/28 05:17:54;;;;;;;29.63;5.50;;;;;;;7.99;100.00;99171.00;5090742;28;20032;-79
2021/12/28 05:20:19;;;;;;;23.30;5.40;;;;;;;7.96;100.00;99160.66;5090917;28;20032;-78
2021/12/28 05:22:44;;;;;;;23.95;5.35;;;;;;;7.99;100.00;99167.50;5090393;28;20439;-78
2021/12/28 05:25:10;;;;;;;22.20;5.50;;;;;;;7.99;100.00;99165.69;5091758;28;20051;-80
2021/12/28 05:27:36;;;;;;;29.17;5.28;;;;;;;7.80;100.00;99131.09;5073580;28;20024;-79
2021/12/28 05:30:06;;;;;;;21.75;5.20;;;;;;;7.98;100.00;99158.75;5088365;28;20425;-79
2021/12/28 05:32:32;;;;;;;19.55;5.47;;;;;;;8.00;100.00;99156.81;5081508;28;20027;-78
2021/12/28 05:34:58;;;;;;;17.75;5.45;;;;;;;7.89;100.00;99141.78;5090394;28;20089;-79
2021/12/28 05:37:23;;;;;;;23.70;5.78;;;;;;;8.02;100.00;99162.81;5090189;28;20032;-78
2021/12/28 05:39:51;;;;;;;16.55;4.97;;;;;;;7.96;100.00;99150.91;5091902;28;20474;-80
2021/12/28 05:42:19;;;;;;;17.35;5.18;;;;;;;7.96;100.00;99142.97;5091244;28;20032;-78
2021/12/28 05:44:44;;;;;;;17.17;5.05;;;;;;;8.03;100.00;99150.41;5090530;28;20066;-78
2021/12/28 05:47:09;;;;;;;17.60;4.72;;;;;;;8.06;100.00;99150.16;5090220;28;20169;-80
2021/12/28 05:49:35;;;;;;;20.30;5.03;;;;;;;8.06;100.00;99152.81;5072637;28;20047;-79
2021/12/28 05:52:03;;;;;;;19.00;5.97;;;;;;;8.03;100.00;99131.88;5089974;28;20118;-79
2021/12/28 05:54:28;;;;;;;19.92;4.78;;;;;;;8.08;100.00;99149.09;5089702;28;20356;-79
2021/12/28 05:56:54;;;;;;;22.25;5.07;;;;;;;8.02;100.00;99132.84;5073308;28;20028;-78
2021/12/28 05:59:19;;;;;;;16.75;4.38;;;;;;;8.08;100.00;99130.53;5090994;28;20427;-79
2021/12/28 06:01:44;;;;;;;15.43;5.03;;;;;;;8.09;100.00;99140.19;5090070;28;20028;-80
2021/12/28 06:04:11;;;;;;;14.98;4.50;;;;;;;8.02;100.00;99115.16;5089918;28;20418;-79
2021/12/28 06:06:36;;;;;;;15.23;4.18;;;;;;;8.13;100.00;99125.72;5090110;28;20396;-79
2021/12/28 06:09:02;;;;;;;18.10;4.50;;;;;;;8.06;100.00;99118.38;5090330;28;20087;-79
2021/12/28 06:11:28;;;;;;;14.35;4.53;;;;;;;7.95;100.00;99084.88;5091457;28;20077;-79
2021/12/28 06:13:54;;;;;;;16.13;4.80;;;;;;;8.11;100.00;99116.22;5090776;28;20401;-79
2021/12/28 06:16:19;;;;;;;17.25;4.55;;;;;;;8.14;100.00;99114.16;5089863;28;20031;-79
2021/12/28 06:18:47;;;;;;;16.98;4.53;;;;;;;7.96;100.00;99090.03;5089996;28;20051;-78
2021/12/28 06:21:12;;;;;;;15.88;4.75;;;;;;;8.16;100.00;99122.84;5093958;28;20033;-81
2021/12/28 06:23:41;;;;;;;13.75;4.47;;;;;;;8.10;100.00;99107.44;5071103;28;20035;-78
2021/12/28 06:26:06;;;;;;;16.65;4.53;;;;;;;8.03;100.00;99084.22;5089021;28;20467;-80
2021/12/28 06:28:32;;;;;;;14.38;4.47;;;;;;;8.05;100.00;99096.38;5073165;28;20085;-78
2021/12/28 06:31:00;;;;;;;13.23;4.45;;;;;;;8.18;100.00;99104.19;5089418;28;20096;-79
2021/12/28 06:33:25;;;;;;;16.27;4.60;;;;;;;8.15;100.00;99097.34;5089895;28;20036;-79
2021/12/28 06:35:51;;;;;;;13.18;4.65;;;;;;;7.95;100.00;99058.38;5089294;28;20364;-79
2021/12/28 06:38:17;;;;;;;12.88;4.03;;;;;;;7.90;100.00;99053.47;5091239;28;20107;-79
2021/12/28 06:40:43;;;;;;;13.57;4.25;;;;;;;8.13;100.00;99098.41;5090712;28;20024;-79
2021/12/28 06:43:09;;;;;;;12.65;4.15;;;;;;;8.13;100.00;99091.31;5089445;28;20087;-78
2021/12/28 06:45:34;;;;;;;15.30;4.88;;;;;;;8.11;100.00;99097.69;5089120;28;20036;-79
2021/12/28 06:48:01;;;;;;;13.75;4.28;;;;;;;8.04;100.00;99085.94;5091164;28;20031;-78
2021/12/28 06:50:28;;;;;;;16.75;3.95;;;;;;;8.11;100.00;99095.88;5090669;28;20089;-78
2021/12/28 06:52:55;;;;;;;19.20;4.90;;;;;;;7.87;100.00;99042.28;5091387;28;20016;-79
2021/12/28 06:55:21;;;;;;;14.25;4.43;;;;;;;8.16;100.00;99096.34;5089033;28;20024;-80
2021/12/28 06:57:47;;;;;;;16.05;4.38;;;;;;;7.99;100.00;99065.09;5077119;28;20109;-78
2021/12/28 07:00:16;;;;;;;15.05;4.10;;;;;;;8.05;100.00;99072.56;5094560;28;20514;-78
2021/12/28 07:02:43;;;;;;;12.20;3.88;;;;;;;8.03;100.00;99074.50;5093606;28;20024;-79
2021/12/28 07:05:09;;;;;;;11.77;4.28;;;;;;;8.11;100.00;99085.28;5094567;28;20036;-79
2021/12/28 07:07:35;;;;;;;13.77;3.90;;;;;;;8.10;100.00;99078.31;5094439;28;20024;-78
2021/12/28 07:10:01;;;;;;;10.18;3.70;;;;;;;8.03;100.00;99071.84;5094424;28;20103;-78
2021/12/28 07:12:27;;;;;;;14.38;3.95;;;;;;;8.14;100.00;99095.63;5094680;28;20435;-79
2021/12/28 07:14:53;;;;;;;8.80;3.25;;;;;;;8.19;100.00;99096.09;5094409;28;20110;-78
2021/12/28 07:17:20;;;;;;;12.80;4.03;;;;;;;8.09;100.00;99075.78;5094155;28;20119;-79
2021/12/28 07:19:48;;;;;;;13.57;3.58;;;;;;;8.18;100.00;99078.53;5094534;28;20061;-79
2021/12/28 07:22:14;;;;;;;8.85;3.20;;;;;;;8.22;100.00;99089.72;5094265;28;20048;-79
2021/12/28 07:24:39;;;;;;;10.68;4.07;;;;;;;8.08;100.00;99068.81;5094229;28;20063;-81
2021/12/28 07:27:05;;;;;;;11.52;4.03;;;;;;;8.08;100.00;99068.81;5094540;28;20024;-78
2021/12/28 07:29:30;;;;;;;10.30;3.35;;;;;;;8.20;100.00;99081.03;5092688;28;20028;-79
2021/12/28 07:31:56;;;;;;;6.20;3.67;;;;;;;8.29;100.00;99088.22;5092830;28;20020;-79
2021/12/28 07:34:22;;;;;;;9.30;3.78;;;;;;;8.25;100.00;99084.16;5092703;28;20051;-80
2021/12/28 07:36:47;;;;;;;6.05;2.88;;;;;;;8.27;100.00;99089.34;5092706;28;20122;-79
2021/12/28 07:39:15;;;;;;;7.75;3.35;;;;;;;8.26;100.00;99091.13;5092419;28;20020;-79
2021/12/28 07:41:41;;;;;;;14.98;3.75;;;;;;;8.13;100.00;99077.22;5125182;27;20044;-80
2021/12/28 07:44:11;;;;;;;10.05;3.88;;;;;;;8.27;100.00;99098.13;5092339;28;20503;-78
2021/12/28 07:46:36;;;;;;;8.43;3.13;;;;;;;8.15;100.00;99076.16;5083230;28;20040;-79
2021/12/28 07:49:02;;;;;;;8.50;3.65;;;;;;;8.24;100.00;99098.38;5092215;28;20036;-79
2021/12/28 07:51:28;;;;;;;15.40;4.05;;;;;;;8.20;100.00;99089.00;5094060;28;20031;-78
2021/12/28 07:53:55;;;;;;;7.35;3.50;;;;;;;8.22;100.00;99089.72;5092174;28;20023;-79
2021/12/28 07:56:22;;;;;;;6.10;3.78;;;;;;;8.19;100.00;99080.22;5093916;28;20032;-79
2021/12/28 07:58:47;;;;;;;8.10;3.70;;;;;;;8.26;100.00;99085.00;5093048;28;20020;-78
2021/12/28 08:01:13;;;;;;;7.78;3.50;;;;;;;8.17;100.00;99066.25;5093537;28;20382;-78
2021/12/28 08:03:39;;;;;;;10.68;4.55;;;;;;;8.27;100.00;99076.94;5093349;28;20114;-78
2021/12/28 08:06:04;;;;;;;10.60;4.03;;;;;;;8.30;100.00;99082.00;5092020;28;20028;-78
2021/12/28 08:08:32;;;;;;;10.38;4.22;;;;;;;8.19;100.00;99058.19;5093004;28;20038;-78
2021/12/28 08:11:00;;;;;;;7.97;4.53;;;;;;;8.26;100.00;99071.75;5091833;28;20112;-79
2021/12/28 08:13:25;;;;;;;10.13;4.28;;;;;;;8.26;100.00;99072.59;5093657;28;20490;-79
2021/12/28 08:15:50;;;;;;;8.35;4.20;;;;;;;8.33;100.00;99076.44;5075019;28;20102;-79
2021/12/28 08:18:16;;;;;;;12.15;4.80;;;;;;;8.25;100.00;99070.09;5092225;28;20032;-78
2021/12/28 08:20:42;;;;;;;11.73;5.15;;;;;;;8.27;100.00;99081.41;5091706;28;20108;-79
2021/12/28 08:23:08;;;;;;;8.35;4.40;;;;;;;8.26;100.00;99069.94;5093300;28;20020;-78
2021/12/28 08:25:36;;;;;;;9.68;5.40;;;;;;;8.34;100.00;99082.56;5093135;28;20089;-79
2021/12/28 08:28:04;;;;;;;13.93;5.00;;;;;;;8.27;100.00;99060.22;5092008;28;20656;-79
2021/12/28 08:30:31;;;;;;;11.15;5.35;;;;;;;8.29;100.00;99064.41;5075048;28;20051;-79
2021/12/28 08:32:56;;;;;;;8.20;5.00;;;;;;;8.31;100.00;99062.47;5092848;28;20113;-81
2021/12/28 08:35:22;;;;;;;7.55;5.18;;;;;;;8.26;100.00;99056.72;5091358;28;20032;-78
2021/12/28 08:37:50;;;;;;;10.20;5.80;;;;;;;8.39;100.00;99060.06;5091580;28;20470;-79
2021/12/28 08:40:17;;;;;;;6.00;5.35;;;;;;;8.36;100.00;99065.59;5091557;28;20032;-79
2021/12/28 08:42:42;;;;;;;8.45;5.60;;;;;;;8.39;100.00;99070.66;5091395;28;20415;-78
2021/12/28 08:45:09;;;;;;;15.80;6.63;;;;;;;8.46;100.00;99072.81;5091615;28;20047;-79
2021/12/28 08:47:35;;;;;;;10.00;6.53;;;;;;;8.42;100.00;99061.63;5074470;28;20057;-79
2021/12/28 08:50:01;;;;;;;10.40;7.45;;;;;;;8.32;100.00;99042.13;5092299;28;20161;-79
2021/12/28 08:52:26;;;;;;;10.80;7.10;;;;;;;8.46;100.00;99060.41;5090523;28;20205;-78
2021/12/28 08:54:52;;;;;;;12.32;7.13;;;;;;;8.48;100.00;99061.13;5091165;28;20170;-79
2021/12/28 08:57:18;;;;;;;10.93;7.45;;;;;;;8.44;100.00;99051.72;5088476;28;20031;-78
2021/12/28 08:59:44;;;;;;;9.50;7.70;;;;;;;8.48;100.00;99058.47;5076029;28;20024;-78
2021/12/28 09:02:10;;;;;;;8.35;7.50;;;;;;;8.49;100.00;99060.13;5090205;28;20035;-78
2021/12/28 09:04:39;;;;;;;9.45;8.43;;;;;;;8.54;100.00;99054.47;5092266;28;20032;-78
2021/12/28 09:07:05;;;;;;;8.82;7.93;;;;;;;8.45;100.00;99042.84;5091133;28;20020;-78
2021/12/28 09:09:30;;;;;;;10.02;8.68;;;;;;;8.53;100.00;99050.13;5091044;28;20498;-79
2021/12/28 09:11:56;;;;;;;10.77;8.43;;;;;;;8.51;100.00;99041.47;5090365;28;20111;-77
2021/12/28 09:14:21;;;;;;;10.25;8.75;;;;;;;8.57;100.00;99054.22;5090722;28;20039;-78
2021/12/28 09:16:46;;;;;;;10.50;9.25;;;;;;;8.62;100.00;99055.50;5090705;28;20579;-80
2021/12/28 09:19:12;;;;;;;10.15;9.13;;;;;;;8.54;100.00;99025.31;5092012;28;20110;-78
2021/12/28 09:21:37;;;;;;;12.95;9.48;;;;;;;8.67;100.00;99046.31;5072821;28;20028;-78
2021/12/28 09:24:03;;;;;;;11.30;9.52;;;;;;;8.67;100.00;99049.81;5090357;28;20028;-78
2021/12/28 09:26:29;;;;;;;11.82;10.07;;;;;;;8.70;100.00;99030.16;5072945;28;20107;-79
2021/12/28 09:28:54;;;;;;;13.77;10.02;;;;;;;8.65;100.00;99022.63;5090049;28;20026;-79
2021/12/28 09:31:21;;;;;;;15.25;10.07;;;;;;;8.56;100.00;99000.38;5091378;28;20111;-78
2021/12/28 09:33:49;;;;;;;12.88;9.68;;;;;;;8.73;100.00;99025.44;5091638;28;20172;-78
2021/12/28 09:36:16;;;;;;;12.35;10.23;;;;;;;8.64;100.00;99010.31;5090511;28;20047;-79
2021/12/28 09:38:44;;;;;;;11.85;9.95;;;;;;;8.80;100.00;99031.06;5091660;28;20035;-78
2021/12/28 09:41:10;;;;;;;11.25;10.20;;;;;;;8.83;100.00;99028.16;5091516;28;20056;-79
2021/12/28 09:43:36;;;;;;;11.23;10.10;;;;;;;8.79;100.00;99024.91;5091136;28;20039;-79
2021/12/28 09:46:04;;;;;;;10.95;9.85;;;;;;;8.56;100.00;98973.03;5091539;28;20107;-79
2021/12/28 09:48:31;;;;;;;12.20;10.25;;;;;;;8.76;100.00;99006.63;5090608;28;20054;-78
2021/12/28 09:51:00;;;;;;;10.63;9.63;;;;;;;8.89;100.00;99016.19;5091464;28;20015;-79
2021/12/28 09:53:26;;;;;;;10.67;9.63;;;;;;;8.77;100.00;98988.94;5091884;28;20436;-79
2021/12/28 09:55:52;;;;;;;10.23;8.93;;;;;;;8.82;100.00;98992.00;5089860;28;20023;-78
2021/12/28 09:58:17;;;;;;;10.30;8.38;;;;;;;8.86;100.00;98998.75;5091121;28;20027;-79
2021/12/28 10:00:43;;;;;;;9.30;8.32;;;;;;;8.88;100.00;98986.16;5089890;28;20491;-79
2021/12/28 10:03:08;;;;;;;9.50;8.57;;;;;;;8.98;100.00;99005.63;5088868;28;20042;-78
2021/12/28 10:05:36;;;;;;;8.75;7.85;;;;;;;8.99;100.00;99002.00;5071527;28;20562;-78
2021/12/28 10:08:04;;;;;;;8.57;7.65;;;;;;;8.94;100.00;98985.66;5090042;28;20028;-79
2021/12/28 10:10:37;;;;;;;8.68;7.75;;;;;;;9.06;100.00;98999.69;5089607;28;21044;-79
2021/12/28 10:13:05;;;;;;;8.68;7.30;;;;;;;9.05;100.00;98980.25;5089535;28;20024;-79
2021/12/28 10:15:38;;;;;;;8.60;6.90;;;;;;;9.09;100.00;98992.28;5081969;28;20110;-79
2021/12/28 10:18:08;;;;;;;8.27;7.20;;;;;;;9.09;100.00;98987.00;5091484;28;20351;-79
2021/12/28 10:20:54;;;;;;;7.32;6.57;;;;;;;9.14;100.00;98973.31;5091108;28;20024;-78
2021/12/28 10:23:29;;;;;;;6.00;5.50;;;;;;;9.06;100.00;98949.31;5085528;28;20040;-77
2021/12/28 10:26:05;;;;;;;5.80;5.35;;;;;;;9.06;100.00;98931.56;5090779;28;20031;-80
2021/12/28 10:28:34;;;;;;;6.65;5.88;;;;;;;9.25;100.00;98949.34;5085380;28;20032;-80
2021/12/28 10:31:06;;;;;;;5.00;4.50;;;;;;;9.33;100.00;98941.56;5090889;28;20043;-77
2021/12/28 10:33:36;;;;;;;5.45;4.88;;;;;;;9.40;100.00;98928.56;5091323;28;20438;-79
2021/12/28 10:36:07;;;;;;;5.25;4.30;;;;;;;9.49;100.00;98943.66;5094975;28;20062;-80
2021/12/28 10:38:36;;;;;;;4.45;4.00;;;;;;;9.50;100.00;98936.53;5091919;28;20109;-79
2021/12/28 10:41:13;;;;;;;3.67;3.25;;;;;;;9.52;100.00;98934.59;5093327;28;20027;-78
2021/12/28 10:43:43;;;;;;;4.78;4.13;;;;;;;9.41;100.00;98929.41;5093994;28;20098;-81
2021/12/28 10:46:18;;;;;;;5.50;3.60;;;;;;;9.40;100.00;98927.75;5095016;28;20360;-81
2021/12/28 10:48:50;;;;;;;6.78;3.70;;;;;;;9.49;100.00;98926.91;5095156;28;20035;-78
2021/12/28 10:51:23;;;;;;;3.67;3.35;;;;;;;9.33;100.00;98916.84;5094261;28;20020;-81
2021/12/28 10:54:33;;;;;;;5.35;3.30;;;;;;;9.37;100.00;98923.53;5087219;28;20516;-79
2021/12/28 10:56:57;;;;;;;4.47;3.90;;;;;;;9.39;100.00;98928.72;5085110;28;20047;-81
2021/12/28 10:59:26;;;;;;;5.25;3.60;;;;;;;9.31;100.00;98908.16;5092523;28;20475;-81
2021/12/28 11:01:52;;;;;;;5.72;3.90;;;;;;;9.43;100.00;98933.59;5094067;28;20036;-78
2021/12/28 11:04:18;;;;;;;6.20;3.60;;;;;;;9.40;100.00;98919.78;5091927;28;20046;-79
2021/12/28 11:06:47;;;;;;;5.40;3.53;;;;;;;9.23;100.00;98894.75;5092180;28;20016;-78
2021/12/28 11:09:19;;;;;;;6.35;3.95;;;;;;;9.33;100.00;98904.41;5091453;28;20024;-82
2021/12/28 11:11:45;;;;;;;5.57;4.00;;;;;;;9.36;100.00;98905.97;5091465;28;20301;-77
2021/12/28 11:14:14;;;;;;;4.35;3.92;;;;;;;9.30;100.00;98902.03;5094037;28;20028;-77
2021/12/28 11:16:40;;;;;;;4.05;3.67;;;;;;;9.31;100.00;98903.69;5096487;28;20022;-80
2021/12/28 11:19:08;;;;;;;4.10;3.80;;;;;;;9.30;100.00;98903.84;5094558;28;20429;-81
2021/12/28 11:21:35;;;;;;;4.10;3.80;;;;;;;9.30;100.00;98894.06;5091993;28;20024;-78
2021/12/28 11:24:05;;;;;;;5.70;4.25;;;;;;;9.16;100.00;98869.75;5092246;28;20046;-78
2021/12/28 11:26:37;;;;;;;;;;;;;;;9.36;100.00;98895.34;5094522;28;20081;-79
2021/12/28 11:29:04;;;;;;;5.68;3.40;;;;;;;9.37;100.00;98890.88;5093943;28;20314;-80